Latest Weather Observations for Armidale Airport

IDN60801

Issued at 6:33 pm EST Thursday 28 July 2016 (issued every 30 minutes, with the page automatically refreshed every 10 minutes)

About weather observations | Map of weather stations | Latest weather observations for NSW | Other Formats
Station Details ID: 056238 Name: ARMIDALE AIRPORT AWS Lat: -30.53 Lon: 151.62 Height: 1079.0 m
Data from the previous 72 hours. | See also: Recent months at Armidale Airport
Date/Time
EST
Temp
°C
App
Temp
°C
Dew
Point
°C
Rel
Hum
%
Delta-T
°C
Wind Press
QNH
hPa
Press
MSL
hPa
Rain since
9am
mm
Dir  Spd
km/h
Gust
km/h
Spd
kts
Gust
kts
28/06:30pm 6.1 2.1 0.4 67 2.4 W 11 13 6 7 1024.1 1024.5 0.0
28/06:00pm 6.9 2.6 1.0 66 2.5 W 13 17 7 9 1023.9 1024.3 0.0
28/05:30pm 7.7 3.4 0.7 61 3.0 WNW 13 15 7 8 1023.5 1023.8 0.0
28/05:00pm 10.3 5.1 -0.2 48 4.5 WNW 17 19 9 10 1023.2 1023.6 0.0
28/04:30pm 11.6 5.9 0.7 47 4.8 W 20 26 11 14 1023.1 1023.5 0.0
28/04:00pm 12.4 6.9 0.8 45 5.2 W 19 24 10 13 1023.0 1023.3 0.0
28/03:30pm 12.9 7.2 -0.7 39 5.9 W 19 22 10 12 1022.9 1023.2 0.0
28/03:00pm 13.3 7.7 0.0 40 5.9 W 19 26 10 14 1022.9 1023.2 0.0
28/02:30pm 12.9 7.6 -0.4 40 5.8 W 17 22 9 12 1023.0 1023.3 0.0
28/02:00pm 13.4 8.0 -1.0 37 6.2 WNW 17 20 9 11 1023.0 1023.3 0.0
28/01:30pm 12.4 7.7 -1.5 38 5.9 WSW 13 19 7 10 1023.2 1023.6 0.0
28/01:00pm 11.9 7.0 -3.1 35 6.1 W 13 20 7 11 1023.6 1023.9 0.0
28/12:30pm 11.2 6.9 -1.5 41 5.3 W 11 17 6 9 1023.8 1024.1 0.0
28/12:00pm 10.9 5.9 1.2 51 4.3 WSW 17 20 9 11 1024.1 1024.5 0.0
28/11:30am 9.6 6.5 1.5 57 3.6 WSW 7 11 4 6 1024.6 1024.9 0.0
28/11:00am 8.3 4.4 1.0 60 3.1 W 11 15 6 8 1024.9 1025.3 0.0
28/10:30am 6.4 3.7 2.7 77 1.6 WSW 6 11 3 6 1025.1 1025.5 0.0
28/10:14am 5.3 2.7 3.3 87 0.9 NW 6 9 3 5 1025.4 1025.7 0.0
28/10:00am 4.5 1.9 4.2 98 0.1 WNW 7 9 4 5 1025.1 1025.5 0.0
28/09:58am 4.3 1.7 4.0 98 0.1 W 7 13 4 7 1025.1 1025.5 0.0
28/09:30am 2.9 0.0 2.8 99 0.0 W 7 11 4 6 1025.1 1025.5 0.0
28/09:00am 2.3 -0.7 2.2 99 0.0 S 7 11 4 6 1025.2 1025.6 0.0
28/08:45am 2.2 -1.9 2.1 99 0.0 SSW 13 15 7 8 1025.1 1025.5 0.0
28/08:36am 2.9 0.0 2.8 99 0.0 SW 7 13 4 7 1024.9 1025.3 0.0
28/08:30am 2.9 0.6 2.8 99 0.0 WSW 4 7 2 4 1024.7 1025.1 0.0
28/08:04am 2.1 -1.3 2.0 99 0.0 WNW 9 11 5 6 1024.5 1024.8 0.0
28/08:03am 2.1 -0.9 2.0 99 0.0 WNW 7 11 4 6 1024.5 1024.8 0.0
28/08:00am 2.2 -0.8 2.1 99 0.0 W 7 11 4 6 1024.5 1024.8 0.0
28/07:30am 1.0 -2.9 0.9 99 0.0 NW 11 13 6 7 1024.0 1024.4 0.0
28/07:23am 0.7 -3.3 0.6 99 0.0 NW 11 13 6 7 1024.0 1024.4 0.0
28/07:00am 0.8 -2.4 0.7 99 0.0 NNW 7 9 4 5 1023.9 1024.3 0.0
28/06:30am 0.0 -2.4 -0.1 99 0.0 NW 2 9 1 5 1023.7 1024.0 0.0
28/06:12am -2.4 -5.9 -2.5 99 -0.1 W 6 9 3 5 1023.7 1024.0 0.0
28/06:08am -0.1 -3.4 -0.2 99 0.0 WSW 7 9 4 5 1023.5 1023.8 0.0
28/06:00am 0.4 -2.7 0.3 99 0.0 SW 6 7 3 4 1023.5 1023.8 0.0
28/05:37am -0.6 -4.4 -0.7 99 0.0 NW 9 11 5 6 1023.0 1023.3 0.0
28/05:32am 0.2 -3.5 0.1 99 0.0 NW 9 9 5 5 1023.1 1023.5 0.0
28/05:30am 0.1 -3.6 -0.2 98 0.1 NW 9 11 5 6 1023.1 1023.5 0.0
28/05:00am -1.0 -5.3 -1.3 98 0.1 NW 11 11 6 6 1022.8 1023.1 0.0
28/04:30am -0.7 -4.2 -1.0 98 0.1 WNW 7 9 4 5 1022.5 1022.8 0.0
28/04:19am -0.7 -4.2 -1.0 98 0.1 WNW 7 7 4 4 1022.4 1022.7 0.0
28/04:10am -0.9 -4.4 -1.2 98 0.1 W 7 11 4 6 1022.2 1022.5 0.0
28/04:00am -0.3 -4.5 -0.6 98 0.1 W 11 11 6 6 1022.1 1022.4 0.0
28/03:30am -0.2 -3.4 -0.5 98 0.1 WNW 6 7 3 4 1022.1 1022.4 0.0
28/03:19am 0.1 -3.1 -0.2 98 0.1 W 6 7 3 4 1022.2 1022.5 0.0
28/03:00am 1.1 -1.5 0.8 98 0.1 WNW 4 7 2 4 1022.5 1022.8 0.0
28/02:30am -0.7 -4.0 -1.3 96 0.2 N 6 9 3 5 1022.7 1023.0 0.0
28/02:00am 1.1 -3.2 0.8 98 0.1 WNW 13 20 7 11 1022.6 1022.9 0.0
28/01:30am 1.7 -3.3 1.4 98 0.1 W 17 19 9 10 1022.5 1022.8 0.0
28/01:00am 1.8 -3.2 1.5 98 0.1 W 17 20 9 11 1022.5 1022.8 0.0
28/12:30am 2.4 -2.5 2.0 97 0.2 W 17 24 9 13 1022.5 1022.8 0.0
28/12:00am 2.7 -1.8 2.0 95 0.3 W 15 19 8 10 1022.7 1023.0 0.0
 
Date/Time
EST
Temp
°C
App
Temp
°C
Dew
Point
°C
Rel
Hum
%
Delta-T
°C
Wind Press
QNH
hPa
Press
MSL
hPa
Rain since
9am
mm
Dir  Spd
km/h
Gust
km/h
Spd
kts
Gust
kts
27/11:30pm 3.6 -1.6 2.7 94 0.4 WSW 19 24 10 13 1022.7 1023.0 0.0
27/11:00pm 3.6 -1.2 2.7 94 0.4 W 17 20 9 11 1022.6 1022.9 0.0
27/10:30pm 3.8 -1.0 2.5 91 0.6 W 17 20 9 11 1022.6 1022.9 0.0
27/10:00pm 4.3 -0.9 2.5 88 0.8 W 19 20 10 11 1022.7 1023.0 0.0
27/09:30pm 5.1 -0.1 2.5 83 1.1 W 19 26 10 14 1022.5 1022.8 0.0
27/09:00pm 5.9 -1.0 2.5 79 1.5 WSW 28 37 15 20 1022.0 1022.3 0.0
27/08:30pm 5.7 -0.1 2.4 79 1.4 W 22 30 12 16 1021.7 1022.0 0.0
27/08:00pm 5.9 0.0 2.0 76 1.7 W 22 30 12 16 1021.3 1021.5 0.0
27/07:30pm 6.5 -0.1 2.0 73 2.0 W 26 32 14 17 1021.0 1021.3 0.0
27/07:00pm 6.6 0.4 1.9 72 2.0 W 24 32 13 17 1020.4 1020.6 0.0
27/06:30pm 7.0 1.7 2.1 71 2.2 W 19 24 10 13 1020.3 1020.5 0.0
27/06:00pm 7.3 1.8 2.0 69 2.3 W 20 28 11 15 1019.9 1020.2 0.0
27/05:30pm 7.4 0.3 1.3 65 2.6 W 28 35 15 19 1019.6 1019.8 0.0
27/05:00pm 8.2 1.1 1.4 62 3.0 W 28 39 15 21 1019.3 1019.5 0.0
27/04:30pm 8.6 0.2 1.7 62 3.0 W 35 46 19 25 1018.6 1018.8 0.0
27/04:00pm 9.5 0.4 1.9 59 3.4 W 39 56 21 30 1017.7 1017.9 0.0
27/03:30pm 10.1 0.8 0.7 52 4.1 WNW 39 50 21 27 1017.4 1017.5 0.0
27/03:00pm 10.1 2.0 1.0 53 4.0 W 33 43 18 23 1017.7 1017.9 0.0
27/02:30pm 10.9 1.3 1.4 52 4.3 WNW 41 46 22 25 1017.4 1017.5 0.0
27/02:25pm 10.7 1.9 1.3 52 4.2 WNW 37 46 20 25 1017.4 1017.5 0.0
27/02:00pm 11.3 3.5 1.5 51 4.4 W 32 44 17 24 1017.5 1017.7 0.0
27/01:40pm 10.2 2.1 1.3 54 4.0 WNW 33 52 18 28 1017.6 1017.8 0.0
27/01:30pm 10.7 1.8 1.0 51 4.3 WNW 37 52 20 28 1017.4 1017.5 0.0
27/01:00pm 9.6 1.5 0.8 54 3.8 W 33 43 18 23 1017.4 1017.5 0.0
27/12:30pm 8.9 0.0 0.6 56 3.6 W 37 46 20 25 1017.6 1017.8 0.0
27/12:00pm 9.8 1.5 2.4 60 3.4 W 35 48 19 26 1017.8 1018.0 0.0
27/11:30am 9.2 0.8 1.4 58 3.4 WNW 35 48 19 26 1018.3 1018.5 0.0
27/11:00am 9.0 -0.5 1.9 61 3.2 WNW 41 54 22 29 1018.4 1018.6 0.0
27/10:30am 8.6 -0.9 2.0 63 2.9 WNW 41 54 22 29 1018.5 1018.7 0.0
27/10:00am 8.8 -0.1 2.8 66 2.7 WNW 39 54 21 29 1018.6 1018.8 0.0
27/09:30am 7.7 -1.4 1.8 66 2.6 WNW 39 56 21 30 1018.4 1018.6 0.0
27/09:00am 6.9 -2.2 2.0 71 2.1 WNW 39 50 21 27 1018.3 1018.5 0.0
27/08:30am 6.0 -1.9 2.5 78 1.5 WNW 33 44 18 24 1018.6 1018.8 0.0
27/08:00am 4.9 -1.3 2.3 83 1.1 WNW 24 35 13 19 1018.6 1018.8 0.0
27/07:30am 3.7 -1.8 1.9 88 0.8 WNW 20 26 11 14 1018.6 1018.8 0.0
27/07:00am 2.9 -2.6 1.6 91 0.5 WNW 20 30 11 16 1018.6 1018.8 0.0
27/06:30am 1.9 -2.3 1.6 98 0.1 WNW 13 19 7 10 1018.4 1018.6 0.0
27/06:00am 1.5 -2.0 1.2 98 0.1 W 9 11 5 6 1018.1 1018.3 0.0
27/05:30am 2.1 -2.1 1.5 96 0.2 W 13 17 7 9 1017.9 1018.1 0.0
27/05:00am 2.2 -1.6 1.5 95 0.3 W 11 15 6 8 1018.0 1018.2 0.0
27/04:30am 2.9 -0.9 1.7 92 0.5 WNW 11 15 6 8 1017.3 1017.4 0.0
27/04:00am 3.2 -0.5 2.2 93 0.4 NW 11 15 6 8 1017.5 1017.7 0.0
27/03:30am 2.7 -1.1 1.8 94 0.4 W 11 13 6 7 1017.5 1017.7 0.0
27/03:00am 3.2 -0.6 1.9 91 0.5 W 11 15 6 8 1017.6 1017.8 0.0
27/02:30am 3.4 -0.3 2.2 92 0.5 WNW 11 17 6 9 1018.0 1018.2 0.0
27/02:00am 3.4 0.0 1.9 90 0.6 WNW 9 13 5 7 1017.9 1018.1 0.0
27/01:30am 3.6 -0.5 2.0 89 0.7 W 13 19 7 10 1018.3 1018.5 0.0
27/01:00am 3.8 -0.3 2.2 89 0.7 WSW 13 20 7 11 1018.4 1018.6 0.0
27/12:30am 4.0 0.2 1.9 86 0.9 WNW 11 17 6 9 1018.3 1018.5 0.0
27/12:00am 4.1 0.3 2.0 86 0.9 WNW 11 15 6 8 1018.6 1018.8 0.0
 
Date/Time
EST
Temp
°C
App
Temp
°C
Dew
Point
°C
Rel
Hum
%
Delta-T
°C
Wind Press
QNH
hPa
Press
MSL
hPa
Rain since
9am
mm
Dir  Spd
km/h
Gust
km/h
Spd
kts
Gust
kts
26/11:30pm 4.0 -0.2 1.7 85 1.0 WNW 13 17 7 9 1018.4 1018.6 0.0
26/11:00pm 4.4 -0.5 1.9 84 1.1 WNW 17 20 9 11 1018.6 1018.8 0.0
26/10:30pm 4.6 -0.7 1.8 82 1.2 WNW 19 24 10 13 1018.4 1018.6 0.0
26/10:00pm 3.2 -1.4 1.3 87 0.8 WNW 15 19 8 10 1018.5 1018.7 0.0
26/09:30pm 3.7 -0.8 1.9 88 0.8 WNW 15 17 8 9 1018.3 1018.5 0.0
26/09:00pm 3.0 -1.3 0.9 86 0.9 WNW 13 15 7 8 1018.4 1018.6 0.0
26/08:30pm 3.8 -0.8 1.5 85 1.0 NW 15 17 8 9 1018.3 1018.5 0.0
26/08:00pm 4.2 -0.8 1.6 83 1.1 WNW 17 19 9 10 1018.1 1018.3 0.0
26/07:30pm 3.9 -0.8 1.1 82 1.2 WNW 15 17 8 9 1018.1 1018.3 0.0
26/07:00pm 3.6 -0.5 -0.2 76 1.5 NW 11 15 6 8 1018.0 1018.2 0.0
26/06:30pm 4.4 0.4 0.4 75 1.6 NW 11 11 6 6 1017.9 1018.1 0.0
26/06:00pm 5.2 1.2 0.6 72 1.9 WNW 11 13 6 7 1017.7 1017.9 0.0
26/05:30pm 6.1 2.2 1.1 70 2.1 WNW 11 13 6 7 1017.5 1017.7 0.0
26/05:00pm 8.5 3.6 1.9 63 2.9 WNW 17 20 9 11 1017.4 1017.5 0.0
26/04:30pm 9.8 4.6 2.2 59 3.4 WNW 19 24 10 13 1017.5 1017.7 0.0
26/04:00pm 9.6 4.3 2.0 59 3.4 WNW 19 24 10 13 1017.0 1017.2 0.0
26/03:30pm 10.9 5.5 2.2 55 4.0 WNW 20 26 11 14 1017.1 1017.3 0.0
26/03:00pm 11.1 5.2 1.6 52 4.3 WNW 22 28 12 15 1017.0 1017.2 0.0
26/02:30pm 10.9 4.1 0.6 49 4.5 WNW 26 33 14 18 1016.9 1017.1 0.0
26/02:00pm 11.1 4.4 1.4 51 4.3 WNW 26 32 14 17 1017.3 1017.4 0.0
26/01:30pm 10.7 4.0 1.3 52 4.2 WNW 26 32 14 17 1017.1 1017.3 0.0
26/01:00pm 10.2 3.9 1.6 55 3.8 WNW 24 30 13 16 1017.3 1017.4 0.0
26/12:30pm 9.7 3.8 1.8 58 3.5 WNW 22 30 12 16 1017.5 1017.7 0.0
26/12:00pm 9.7 3.8 1.4 56 3.7 WNW 22 28 12 15 1017.9 1018.1 0.0
26/11:30am 8.7 2.3 1.1 59 3.3 WNW 24 32 13 17 1018.4 1018.6 0.0
26/11:00am 8.0 1.2 0.7 60 3.1 WNW 26 33 14 18 1018.7 1018.9 0.0
26/10:30am 7.6 1.2 0.8 62 2.9 WNW 24 28 13 15 1019.1 1019.4 0.0
26/10:00am 6.6 -0.1 1.3 69 2.3 WNW 26 32 14 17 1019.4 1019.6 0.0
26/09:30am 5.7 -1.4 1.2 73 1.9 WNW 28 35 15 19 1019.6 1019.8 0.0
26/09:00am 5.0 -2.5 1.5 78 1.5 W 30 39 16 21 1019.5 1019.7 0.0
26/08:30am 4.3 -3.5 1.5 82 1.2 WNW 32 37 17 20 1019.5 1019.7 0.0
26/08:00am 3.5 -3.2 1.4 86 0.9 WNW 26 32 14 17 1019.4 1019.6 0.0
26/07:30am 2.4 -4.0 0.8 89 0.7 WNW 24 30 13 16 1019.1 1019.4 0.0
26/07:00am 1.1 -5.0 0.2 94 0.4 WNW 22 24 12 13 1019.1 1019.4 0.0
26/06:30am 1.0 -5.1 0.1 94 0.4 WNW 22 24 12 13 1019.0 1019.2 0.0
26/06:00am 1.4 -4.7 0.4 93 0.4 WNW 22 26 12 14 1018.8 1019.0 0.0
26/05:30am 1.1 -5.1 -0.1 92 0.5 WNW 22 26 12 14 1018.5 1018.7 0.0
26/05:00am 0.9 -5.3 -0.4 91 0.5 WNW 22 26 12 14 1018.3 1018.5 0.0
26/04:30am 1.2 -4.7 -0.6 88 0.7 WNW 20 24 11 13 1018.4 1018.6 0.0
26/04:00am 1.4 -4.5 -0.7 86 0.8 WNW 20 26 11 14 1018.5 1018.7 0.0
26/03:30am 1.6 -4.7 -1.0 83 1.0 WNW 22 30 12 16 1018.4 1018.6 0.0
26/03:00am 1.5 -5.2 -1.1 83 1.0 WNW 24 28 13 15 1018.4 1018.6 0.0
26/02:30am 1.8 -4.5 -1.1 81 1.1 W 22 26 12 14 1018.3 1018.5 0.0
26/02:00am 2.0 -3.9 -1.1 80 1.2 WNW 20 26 11 14 1018.5 1018.7 0.0
26/01:30am 1.8 -4.1 -0.9 82 1.0 WNW 20 26 11 14 1018.7 1018.9 0.0
26/01:00am 1.9 -4.4 -1.2 80 1.2 W 22 30 12 16 1018.3 1018.5 0.0
26/12:30am 2.2 -4.1 -1.1 79 1.3 WNW 22 28 12 15 1018.6 1018.8 0.0
26/12:00am 1.9 -4.5 -1.5 78 1.3 WNW 22 28 12 15 1018.8 1019.0 0.0
 
Date/Time
EST
Temp
°C
App
Temp
°C
Dew
Point
°C
Rel
Hum
%
Delta-T
°C
Wind Press
QNH
hPa
Press
MSL
hPa
Rain since
9am
mm
Dir  Spd
km/h
Gust
km/h
Spd
kts
Gust
kts
25/11:30pm 1.7 -4.3 -1.5 79 1.2 WNW 20 24 11 13 1018.6 1018.8 0.0
25/11:00pm 2.3 -3.7 -1.7 75 1.5 WNW 20 26 11 14 1018.3 1018.5 0.0
25/10:30pm 2.6 -4.2 -1.6 74 1.6 WNW 24 28 13 15 1018.3 1018.5 0.0
25/10:00pm 2.6 -3.4 -1.6 74 1.6 WNW 20 26 11 14 1018.3 1018.5 0.0
25/09:30pm 2.4 -3.4 -1.4 76 1.5 WNW 19 24 10 13 1018.0 1018.2 0.0
25/09:00pm 2.1 -3.7 -1.7 76 1.4 WNW 19 20 10 11 1018.3 1018.5 0.0
25/08:30pm 3.0 -2.8 -1.5 72 1.7 WNW 19 22 10 12 1018.4 1018.6 0.0
25/08:00pm 3.4 -2.6 -1.5 70 1.9 WNW 20 26 11 14 1018.5 1018.7 0.0
25/07:30pm 4.0 -2.0 -1.6 67 2.2 W 20 26 11 14 1018.0 1018.2 0.0
25/07:00pm 3.9 -1.9 -1.7 67 2.2 W 19 20 10 11 1017.9 1018.1 0.0

Other Formats:

Comma delimited format used in spreadsheet applications
http://www.bom.gov.au/fwo/IDN60801/IDN60801.95773.axf

JavaScript Object Notation format (JSON) in row-major order
http://www.bom.gov.au/fwo/IDN60801/IDN60801.95773.json